createdAt,value
2023-04-15T00:00:39.241Z,1630.00
2023-04-15T00:04:39.310Z,2196.00
2023-04-15T00:08:39.245Z,2440.00
2023-04-15T00:12:38.850Z,1470.00
2023-04-15T00:16:39.350Z,1261.00
2023-04-15T00:20:39.242Z,1464.00
2023-04-15T00:24:39.269Z,1455.00
2023-04-15T00:28:38.905Z,1697.00
2023-04-15T00:32:39.049Z,1808.00
2023-04-15T00:36:39.345Z,1883.00
2023-04-15T00:40:39.271Z,1972.00
2023-04-15T00:44:39.269Z,1785.00
2023-04-15T00:48:39.037Z,1703.00
2023-04-15T00:52:39.116Z,1886.00
2023-04-15T00:56:39.726Z,1907.00
2023-04-15T01:00:39.230Z,1735.00
2023-04-15T01:04:39.399Z,1827.00
2023-04-15T01:08:39.143Z,1930.00
2023-04-15T01:12:39.108Z,2065.00
2023-04-15T01:16:39.202Z,2102.00
2023-04-15T01:20:39.312Z,2184.00
2023-04-15T01:24:39.763Z,1835.00
2023-04-15T01:28:39.378Z,1854.00
2023-04-15T01:32:39.839Z,1765.00
2023-04-15T01:36:39.770Z,1820.00
2023-04-15T01:40:39.794Z,1990.00
2023-04-15T01:44:39.795Z,2275.00
2023-04-15T01:48:39.411Z,2311.00
2023-04-15T01:52:39.494Z,2446.00
2023-04-15T01:56:39.790Z,2587.00
2023-04-15T02:00:39.808Z,2490.00
2023-04-15T02:04:39.824Z,2365.00
2023-04-15T02:08:39.678Z,2236.00
2023-04-15T02:12:39.776Z,2293.00
2023-04-15T02:16:40.336Z,2326.00
2023-04-15T02:20:40.275Z,2115.00
2023-04-15T02:24:39.842Z,1992.00
2023-04-15T02:28:39.873Z,1971.00
2023-04-15T02:32:40.480Z,2417.00
2023-04-15T02:36:39.955Z,2899.00
2023-04-15T02:40:40.322Z,2987.00
2023-04-15T02:44:40.399Z,2920.00
2023-04-15T02:48:40.117Z,2710.00
2023-04-15T02:52:40.298Z,2702.00
2023-04-15T02:56:40.308Z,2714.00
2023-04-15T03:00:52.313Z,2825.00
2023-04-15T03:04:52.800Z,2786.00
2023-04-15T03:08:40.127Z,2726.00
2023-04-15T03:12:40.295Z,2795.00
2023-04-15T03:16:40.088Z,2964.00
2023-04-15T03:20:40.166Z,3157.00
2023-04-15T03:24:50.746Z,3225.00
2023-04-15T03:28:39.981Z,3347.00
2023-04-15T03:32:40.028Z,3424.00
2023-04-15T03:36:39.941Z,3078.00
2023-04-15T03:40:39.874Z,3083.00
2023-04-15T03:44:39.996Z,2521.00
2023-04-15T03:48:40.149Z,2057.00
2023-04-15T03:52:40.347Z,2296.00
2023-04-15T03:56:40.535Z,2258.00
2023-04-15T04:00:40.634Z,2366.00
2023-04-15T04:04:40.799Z,1810.00
2023-04-15T04:08:41.042Z,1829.00
2023-04-15T04:12:41.384Z,2002.00
2023-04-15T04:16:41.348Z,2187.00
2023-04-15T04:20:41.383Z,2053.00
2023-04-15T04:24:41.517Z,2314.00
2023-04-15T04:28:41.839Z,2635.00
2023-04-15T04:32:41.792Z,2921.00
2023-04-15T04:36:41.864Z,2830.00
2023-04-15T04:40:41.980Z,2701.00
2023-04-15T04:44:42.078Z,648.00
2023-04-15T04:48:42.365Z,500.00
2023-04-15T04:52:42.380Z,517.00
2023-04-15T04:56:42.365Z,912.00
2023-04-15T05:00:42.425Z,1376.00
2023-04-15T05:04:42.568Z,1967.00
2023-04-15T05:08:42.730Z,2297.00
2023-04-15T05:12:43.503Z,2500.00
2023-04-15T05:16:43.490Z,2457.00
2023-04-15T05:20:43.227Z,2572.00
2023-04-15T05:24:43.530Z,2619.00
2023-04-15T05:28:43.875Z,2838.00
2023-04-15T05:32:44.057Z,2952.00
2023-04-15T05:36:43.892Z,2229.00
2023-04-15T05:40:44.074Z,766.00
2023-04-15T05:44:44.386Z,522.00
2023-04-15T05:48:44.392Z,627.00
2023-04-15T05:52:44.889Z,455.00
2023-04-15T05:56:44.678Z,578.00
2023-04-15T06:00:44.831Z,904.00
2023-04-15T06:04:45.378Z,607.00
2023-04-15T06:08:56.916Z,554.00
2023-04-15T06:12:45.013Z,400.00
2023-04-15T06:21:04.970Z,500.00
2023-04-15T06:25:15.244Z,612.00
2023-04-15T06:29:04.953Z,400.00
2023-04-15T06:33:05.217Z,400.00
2023-04-15T06:37:06.324Z,601.00
2023-04-15T06:41:04.886Z,429.00
2023-04-15T06:45:15.250Z,561.00
2023-04-15T06:49:04.773Z,574.00
2023-04-15T06:53:04.741Z,651.00
2023-04-15T06:57:04.707Z,400.00
2023-04-15T07:01:04.703Z,594.00
2023-04-15T07:05:04.792Z,479.00
2023-04-15T07:09:05.700Z,637.00
2023-04-15T07:13:05.272Z,735.00
2023-04-15T07:17:04.849Z,954.00
2023-04-15T07:21:04.672Z,1002.00
2023-04-15T07:33:44.216Z,500.00
2023-04-15T07:37:44.198Z,507.00
2023-04-15T07:41:44.267Z,555.00
2023-04-15T07:45:44.455Z,486.00
2023-04-15T07:54:17.125Z,500.00
2023-04-15T07:58:04.422Z,500.00
2023-04-15T08:02:04.392Z,500.00
2023-04-15T08:06:04.631Z,720.00
2023-04-15T08:10:04.796Z,550.00
2023-04-15T08:14:04.323Z,1013.00
2023-04-15T08:18:04.634Z,803.00
2023-04-15T08:22:04.143Z,482.00
2023-04-15T08:26:04.169Z,479.00
2023-04-15T08:30:05.076Z,725.00
2023-04-15T08:34:04.190Z,503.00
2023-04-15T08:38:03.998Z,557.00
2023-04-15T08:42:03.913Z,923.00
2023-04-15T08:46:04.652Z,453.00
2023-04-15T08:50:04.092Z,828.00
2023-04-15T08:54:04.127Z,593.00
2023-04-15T08:58:04.149Z,1056.00
2023-04-15T09:02:03.882Z,1160.00
2023-04-15T09:14:43.590Z,500.00
2023-04-15T09:18:53.886Z,564.00
2023-04-15T09:22:43.483Z,400.00
2023-04-15T09:26:43.881Z,427.00
2023-04-15T09:30:43.446Z,400.00
2023-04-15T09:34:43.859Z,400.00
2023-04-15T09:38:43.410Z,538.00
2023-04-15T09:42:43.461Z,429.00
2023-04-15T09:46:43.702Z,657.00
2023-04-15T09:55:18.176Z,500.00
2023-04-15T09:59:13.621Z,500.00
2023-04-15T10:03:03.441Z,500.00
2023-04-15T10:07:03.615Z,518.00
2023-04-15T10:11:03.290Z,631.00
2023-04-15T10:15:03.704Z,535.00
2023-04-15T10:19:03.415Z,500.00
2023-04-15T10:23:03.343Z,542.00
2023-04-15T10:27:03.633Z,406.00
2023-04-15T10:31:03.709Z,507.00
2023-04-15T10:35:03.629Z,690.00
2023-04-15T10:39:03.635Z,566.00
2023-04-15T10:43:03.271Z,572.00
2023-04-15T10:47:03.111Z,570.00
2023-04-15T10:51:03.093Z,538.00
2023-04-15T10:55:03.058Z,506.00
2023-04-15T11:16:22.583Z,500.00
2023-04-15T11:20:22.899Z,517.00
2023-04-15T11:24:22.919Z,547.00
2023-04-15T11:28:22.426Z,595.00
2023-04-15T11:32:22.450Z,641.00
2023-04-15T11:36:22.396Z,790.00
2023-04-15T11:40:22.498Z,791.00
2023-04-15T11:44:22.285Z,726.00
2023-04-15T11:48:22.333Z,910.00
2023-04-15T11:52:22.619Z,1004.00
2023-04-15T11:56:22.543Z,741.00
2023-04-15T12:00:22.953Z,554.00
2023-04-15T12:04:25.175Z,518.00
2023-04-15T12:08:22.421Z,482.00
2023-04-15T12:12:22.418Z,493.00
2023-04-15T12:16:22.408Z,493.00
2023-04-15T12:20:22.509Z,538.00
2023-04-15T12:24:22.310Z,573.00
2023-04-15T12:28:22.474Z,628.00
2023-04-15T12:32:22.318Z,648.00
2023-04-15T12:36:22.502Z,713.00
2023-04-15T12:42:00.683Z,500.00
2023-04-15T12:46:00.845Z,576.00
2023-04-15T12:50:00.444Z,583.00
2023-04-15T12:54:00.480Z,500.00
2023-04-15T12:58:00.759Z,578.00
2023-04-15T13:06:20.108Z,500.00
2023-04-15T13:10:20.074Z,545.00
2023-04-15T13:14:19.992Z,685.00
2023-04-15T13:18:20.493Z,639.00
2023-04-15T13:22:20.330Z,735.00
2023-04-15T13:26:19.930Z,686.00
2023-04-15T13:30:19.869Z,500.00
2023-04-15T13:34:20.491Z,550.00
2023-04-15T13:38:19.835Z,598.00
2023-04-15T13:42:19.790Z,850.00
2023-04-15T13:46:19.939Z,906.00
2023-04-15T13:50:19.725Z,803.00
2023-04-15T13:54:19.880Z,869.00
2023-04-15T13:58:19.857Z,793.00
2023-04-15T14:02:19.903Z,989.00
2023-04-15T14:06:19.869Z,1087.00
2023-04-15T14:10:19.600Z,1326.00
2023-04-15T14:14:19.846Z,1402.00
2023-04-15T14:18:19.890Z,998.00
2023-04-15T14:22:19.863Z,1272.00
2023-04-15T14:26:19.413Z,1484.00
2023-04-15T14:30:19.346Z,1903.00
2023-04-15T14:41:15.880Z,500.00
2023-04-15T15:04:07.832Z,500.00
2023-04-15T15:07:57.460Z,500.00
2023-04-15T15:11:57.485Z,400.00
2023-04-15T15:15:57.070Z,400.00
2023-04-15T15:19:57.517Z,426.00
2023-04-15T15:23:57.281Z,504.00
2023-04-15T15:27:57.553Z,501.00
2023-04-15T15:31:58.074Z,515.00
2023-04-15T15:35:57.952Z,607.00
2023-04-15T15:39:58.460Z,662.00
2023-04-15T15:43:58.606Z,701.00
2023-04-15T15:47:58.528Z,721.00
2023-04-15T15:51:58.643Z,947.00
2023-04-15T16:07:48.881Z,500.00
2023-04-15T16:11:48.791Z,500.00
2023-04-15T16:15:48.821Z,511.00
2023-04-15T16:19:56.851Z,400.00
2023-04-15T16:23:49.771Z,419.00
2023-04-15T16:28:00.882Z,485.00
2023-04-15T16:31:49.719Z,412.00
2023-04-15T16:35:48.807Z,501.00
2023-04-15T16:39:48.828Z,578.00
2023-04-15T16:43:48.933Z,693.00
2023-04-15T16:52:34.843Z,500.00
2023-04-15T16:56:34.936Z,500.00
2023-04-15T17:00:35.101Z,499.00
2023-04-15T17:08:54.757Z,500.00
2023-04-15T17:12:54.835Z,510.00
2023-04-15T17:16:54.722Z,534.00
2023-04-15T17:20:54.520Z,603.00
2023-04-15T17:24:54.661Z,552.00
2023-04-15T17:28:54.791Z,593.00
2023-04-15T17:32:54.862Z,569.00
2023-04-15T17:36:54.611Z,544.00
2023-04-15T17:40:54.641Z,541.00
2023-04-15T17:44:54.996Z,626.00
2023-04-15T17:48:54.924Z,1025.00
2023-04-15T17:52:54.638Z,1224.00
2023-04-15T17:56:54.773Z,1416.00
2023-04-15T18:00:54.805Z,1034.00
2023-04-15T18:04:55.985Z,1071.00
2023-04-15T18:17:34.885Z,500.00
2023-04-15T18:21:34.602Z,494.00
2023-04-15T18:25:35.041Z,501.00
2023-04-15T18:29:34.541Z,580.00
2023-04-15T18:33:35.154Z,588.00
2023-04-15T18:37:34.601Z,522.00
2023-04-15T18:41:34.505Z,502.00
2023-04-15T18:45:34.512Z,463.00
2023-04-15T18:49:34.545Z,507.00
2023-04-15T18:53:34.518Z,500.00
2023-04-15T18:57:34.840Z,658.00
2023-04-15T19:01:34.423Z,801.00
2023-04-15T19:05:34.571Z,1080.00
2023-04-15T19:09:34.236Z,795.00
2023-04-15T19:13:34.628Z,664.00
2023-04-15T19:17:34.172Z,517.00
2023-04-15T19:21:34.299Z,528.00
2023-04-15T19:25:35.008Z,822.00
2023-04-15T19:29:34.746Z,549.00
2023-04-15T19:33:35.026Z,400.00
2023-04-15T19:37:48.884Z,474.00
2023-04-15T19:45:55.204Z,500.00
2023-04-15T19:49:55.027Z,558.00
2023-04-15T19:53:55.101Z,1187.00
2023-04-15T19:57:54.732Z,1522.00
2023-04-15T20:01:55.264Z,1247.00
2023-04-15T20:05:55.068Z,1155.00
2023-04-15T20:09:54.642Z,1103.00
2023-04-15T20:13:55.065Z,1281.00
2023-04-15T20:17:54.583Z,1413.00
2023-04-15T20:21:54.583Z,1718.00
2023-04-15T20:25:54.557Z,1906.00
2023-04-15T20:29:54.487Z,1946.00
2023-04-15T20:33:54.547Z,1883.00
2023-04-15T20:37:54.437Z,1590.00
2023-04-15T20:41:54.373Z,1531.00
2023-04-15T20:45:54.620Z,1797.00
2023-04-15T20:49:54.535Z,1927.00
2023-04-15T20:53:54.244Z,1715.00
2023-04-15T20:57:54.293Z,1975.00
2023-04-15T21:01:54.659Z,2428.00
2023-04-15T21:05:54.746Z,1831.00
2023-04-15T21:09:54.266Z,1914.00
2023-04-15T21:13:54.293Z,2039.00
2023-04-15T21:17:54.580Z,2192.00
2023-04-15T21:21:54.692Z,2537.00
2023-04-15T21:25:55.074Z,2715.00
2023-04-15T21:29:54.834Z,2996.00
2023-04-15T21:33:54.861Z,3068.00
2023-04-15T21:37:55.112Z,2736.00
2023-04-15T21:41:55.121Z,2658.00
2023-04-15T21:46:24.176Z,3027.00
2023-04-15T21:49:56.601Z,2993.00
2023-04-15T21:53:55.260Z,2601.00
2023-04-15T21:57:55.375Z,2458.00
2023-04-15T22:01:56.190Z,2611.00
2023-04-15T22:05:56.089Z,2691.00
2023-04-15T22:09:56.091Z,2845.00
2023-04-15T22:13:56.133Z,2930.00
2023-04-15T22:17:56.583Z,2853.00
2023-04-15T22:21:56.689Z,2742.00
2023-04-15T22:25:57.196Z,2889.00
2023-04-15T22:29:56.861Z,2783.00
2023-04-15T22:33:57.212Z,2825.00
2023-04-15T22:37:57.667Z,2950.00
2023-04-15T22:41:57.570Z,2939.00
2023-04-15T22:45:58.322Z,2659.00
2023-04-15T22:49:57.933Z,2710.00
2023-04-15T22:53:58.039Z,2429.00
2023-04-15T22:57:58.616Z,2483.00
2023-04-15T23:01:58.645Z,2524.00
2023-04-15T23:05:59.087Z,2446.00
2023-04-15T23:14:04.665Z,500.00
2023-04-15T23:18:03.188Z,491.00
2023-04-15T23:22:03.142Z,500.00
2023-04-15T23:26:03.162Z,499.00
2023-04-15T23:30:02.868Z,581.00
2023-04-15T23:34:03.137Z,648.00
2023-04-15T23:38:03.173Z,811.00
2023-04-15T23:42:03.158Z,597.00
2023-04-15T23:46:03.103Z,513.00
2023-04-15T23:50:02.909Z,538.00
2023-04-15T23:54:03.138Z,773.00
2023-04-15T23:58:03.109Z,834.00
